Stowe, VT

7:15 AM EST on December 20, 2014 (GMT -0500)
West Hill Stowe | Change Station
CLOSE
Current Station
Personal Weather Station
Location: Stowe, VT
Elevation: 833 ft
Nearby Weather Stations

Elev 833 ft 44.49 °N, 72.68 °W | Updated 10 minutes ago

Partly Cloudy
Partly Cloudy
0.4 °F
Feels Like 0 °F
N
0.0
Wind Variable Wind from SW
Gusts 0.0 mph

Today
High -- | Low -- °F
--% Chance of Precip.
Yesterday
High -- | Low -- °F
Precip. -- in
7:23 AM 4:13 PM
Waning Crescent, 3% visible
Pressure 30.35 in
Visibility 4.0 miles
Clouds Clear
Windchill 0 °F
Dew Point -2 °F
Humidity 88%
Rainfall 0.00 in
Snow Depth Not available.
UV 0 out of 12
Pollen .10 out of 12
Air Quality Not available.
Flu Activity Not available.
METAR KMVL 201154Z AUTO 00000KT 4SM BR CLR M16/M18 A3029 RMK AO2 SLP275 I6000 T11611183 11111 21161 53013 TSNO

More Conditions Fewer Conditions

Pressure 30.35 in
Visibility 4.0 miles
Clouds Clear
Windchill 0 °F
Dew Point -2 °F
Humidity 88%
Rainfall 0.00 in
Snow Depth Not available.
UV 0 out of 12
Pollen .10 out of 12
Air Quality Not available.
Flu Activity Not available.
METAR KMVL 201154Z AUTO 00000KT 4SM BR CLR M16/M18 A3029 RMK AO2 SLP275 I6000 T11611183 11111 21161 53013 TSNO

More Conditions Fewer Conditions

10-Day Weather Forecast

Almanac

Astronomy

Dec. 20, 2014 Rise Set
Actual Time
Civil Twilight
Nautical Twilight
Astronomical Twilight
Moon
Length of Visible Light
Length of Day
Tomorrow will be .
, % of the Moon is Illuminated

Today's Extremes

State Highs State Lows

Community

WunderPhotos

Upload Photos

1,779,162 photos uploaded!

WunderBlogs® & News

Nearby

Air Quality

  Air Quality AQ Index Pollutant
Not available.

Snow Depth

Station Depth Elevation

Earthquake Activity

City Distance Mag. Time & Date
Minimum magnitude displayed is 2.5.

Coastal Water Temperatures

Place Temperature

Nearby Weather Stations